sensor_id;sensor_type;location;lat;lon;timestamp;pressure;altitude;pressure_sealevel;temperature;humidity
79415;BME280;68864;44.972;19.612;2023-10-09T00:02:13;101764.41;;;15.49;51.06
79415;BME280;68864;44.972;19.612;2023-10-09T00:04:41;101755.09;;;15.45;51.57
79415;BME280;68864;44.972;19.612;2023-10-09T00:07:11;101757.53;;;15.46;51.41
79415;BME280;68864;44.972;19.612;2023-10-09T00:09:38;101749.47;;;15.45;51.70
79415;BME280;68864;44.972;19.612;2023-10-09T00:12:15;101747.66;;;15.53;51.36
79415;BME280;68864;44.972;19.612;2023-10-09T00:14:47;101754.81;;;15.50;51.59
79415;BME280;68864;44.972;19.612;2023-10-09T00:17:16;101742.75;;;15.49;51.65
79415;BME280;68864;44.972;19.612;2023-10-09T00:19:49;101737.78;;;15.43;51.61
79415;BME280;68864;44.972;19.612;2023-10-09T00:22:17;101729.75;;;15.41;51.55
79415;BME280;68864;44.972;19.612;2023-10-09T00:24:55;101701.25;;;15.24;51.74
79415;BME280;68864;44.972;19.612;2023-10-09T00:27:39;101693.47;;;15.17;51.60
79415;BME280;68864;44.972;19.612;2023-10-09T00:30:09;101710.50;;;15.24;51.49
79415;BME280;68864;44.972;19.612;2023-10-09T00:32:41;101723.28;;;15.22;51.82
79415;BME280;68864;44.972;19.612;2023-10-09T00:35:24;101726.38;;;15.17;52.14
79415;BME280;68864;44.972;19.612;2023-10-09T00:38:07;101717.00;;;15.09;52.43
79415;BME280;68864;44.972;19.612;2023-10-09T00:40:41;101720.59;;;15.09;52.33
79415;BME280;68864;44.972;19.612;2023-10-09T00:43:13;101715.72;;;15.06;52.19
79415;BME280;68864;44.972;19.612;2023-10-09T00:45:41;101723.69;;;15.04;52.81
79415;BME280;68864;44.972;19.612;2023-10-09T00:48:11;101725.69;;;15.04;52.67
79415;BME280;68864;44.972;19.612;2023-10-09T00:50:40;101713.91;;;14.98;52.74
79415;BME280;68864;44.972;19.612;2023-10-09T00:53:17;101713.47;;;14.96;52.98
79415;BME280;68864;44.972;19.612;2023-10-09T00:55:56;101716.84;;;14.86;53.03
79415;BME280;68864;44.972;19.612;2023-10-09T00:58:25;101713.06;;;14.79;52.99
79415;BME280;68864;44.972;19.612;2023-10-09T01:00:56;101716.22;;;14.77;53.36
79415;BME280;68864;44.972;19.612;2023-10-09T01:03:25;101718.94;;;14.74;53.52
79415;BME280;68864;44.972;19.612;2023-10-09T01:05:55;101695.88;;;14.64;53.15
79415;BME280;68864;44.972;19.612;2023-10-09T01:08:41;101722.56;;;14.74;53.46
79415;BME280;68864;44.972;19.612;2023-10-09T01:11:20;101715.31;;;14.73;53.11
79415;BME280;68864;44.972;19.612;2023-10-09T01:13:50;101719.31;;;14.72;53.31
79415;BME280;68864;44.972;19.612;2023-10-09T01:16:25;101701.41;;;14.61;53.20
79415;BME280;68864;44.972;19.612;2023-10-09T01:18:56;101721.31;;;14.71;52.95
79415;BME280;68864;44.972;19.612;2023-10-09T01:21:24;101718.41;;;14.68;53.22
79415;BME280;68864;44.972;19.612;2023-10-09T01:23:53;101718.06;;;14.54;53.10
79415;BME280;68864;44.972;19.612;2023-10-09T01:26:33;101724.38;;;14.51;53.54
79415;BME280;68864;44.972;19.612;2023-10-09T01:29:04;101725.31;;;14.55;53.38
79415;BME280;68864;44.972;19.612;2023-10-09T01:31:36;101721.84;;;14.46;53.30
79415;BME280;68864;44.972;19.612;2023-10-09T01:34:03;101741.84;;;14.44;53.30
79415;BME280;68864;44.972;19.612;2023-10-09T01:36:35;101739.59;;;14.50;52.93
79415;BME280;68864;44.972;19.612;2023-10-09T01:39:06;101729.91;;;14.47;53.59
79415;BME280;68864;44.972;19.612;2023-10-09T01:41:36;101714.97;;;14.43;53.19
79415;BME280;68864;44.972;19.612;2023-10-09T01:44:12;101711.28;;;14.39;53.01
79415;BME280;68864;44.972;19.612;2023-10-09T01:46:42;101725.28;;;14.39;52.87
79415;BME280;68864;44.972;19.612;2023-10-09T01:49:11;101725.34;;;14.27;53.12
79415;BME280;68864;44.972;19.612;2023-10-09T01:51:43;101726.44;;;14.22;53.65
79415;BME280;68864;44.972;19.612;2023-10-09T01:54:12;101730.41;;;14.21;53.45
79415;BME280;68864;44.972;19.612;2023-10-09T01:56:53;101728.44;;;14.22;53.51
79415;BME280;68864;44.972;19.612;2023-10-09T01:59:21;101725.72;;;14.25;52.95
79415;BME280;68864;44.972;19.612;2023-10-09T02:01:48;101707.72;;;14.26;53.20
79415;BME280;68864;44.972;19.612;2023-10-09T02:04:20;101703.63;;;14.24;53.30
79415;BME280;68864;44.972;19.612;2023-10-09T02:06:47;101715.47;;;14.17;53.65
79415;BME280;68864;44.972;19.612;2023-10-09T02:09:19;101722.16;;;14.13;53.57
79415;BME280;68864;44.972;19.612;2023-10-09T02:11:52;101721.63;;;14.07;53.53
79415;BME280;68864;44.972;19.612;2023-10-09T02:14:19;101723.69;;;14.10;53.50
79415;BME280;68864;44.972;19.612;2023-10-09T02:16:46;101722.50;;;13.96;54.12
79415;BME280;68864;44.972;19.612;2023-10-09T02:19:29;101735.78;;;13.99;53.45
79415;BME280;68864;44.972;19.612;2023-10-09T02:21:59;101747.00;;;13.99;53.77
79415;BME280;68864;44.972;19.612;2023-10-09T02:24:29;101736.69;;;13.87;53.64
79415;BME280;68864;44.972;19.612;2023-10-09T02:27:17;101740.19;;;13.84;53.75
79415;BME280;68864;44.972;19.612;2023-10-09T02:30:07;101737.75;;;13.82;54.11
79415;BME280;68864;44.972;19.612;2023-10-09T02:32:44;101737.38;;;13.84;53.95
79415;BME280;68864;44.972;19.612;2023-10-09T02:35:14;101747.34;;;13.81;53.61
79415;BME280;68864;44.972;19.612;2023-10-09T02:37:53;101738.25;;;13.72;54.03
79415;BME280;68864;44.972;19.612;2023-10-09T02:40:22;101733.81;;;13.71;54.11
79415;BME280;68864;44.972;19.612;2023-10-09T02:42:53;101736.06;;;13.66;54.00
79415;BME280;68864;44.972;19.612;2023-10-09T02:45:19;101739.47;;;13.59;54.27
79415;BME280;68864;44.972;19.612;2023-10-09T02:47:53;101740.38;;;13.63;54.14
79415;BME280;68864;44.972;19.612;2023-10-09T02:50:21;101736.16;;;13.41;55.12
79415;BME280;68864;44.972;19.612;2023-10-09T02:52:48;101730.50;;;13.53;54.10
79415;BME280;68864;44.972;19.612;2023-10-09T02:55:19;101725.38;;;13.56;54.44
79415;BME280;68864;44.972;19.612;2023-10-09T02:57:52;101718.56;;;13.57;54.14
79415;BME280;68864;44.972;19.612;2023-10-09T03:00:30;101707.91;;;13.46;54.74
79415;BME280;68864;44.972;19.612;2023-10-09T03:02:58;101715.59;;;13.49;54.36
79415;BME280;68864;44.972;19.612;2023-10-09T03:05:25;101717.66;;;13.52;54.17
79415;BME280;68864;44.972;19.612;2023-10-09T03:07:54;101735.38;;;13.57;54.23
79415;BME280;68864;44.972;19.612;2023-10-09T03:10:22;101734.47;;;13.52;54.45
79415;BME280;68864;44.972;19.612;2023-10-09T03:12:49;101708.59;;;13.43;54.64
79415;BME280;68864;44.972;19.612;2023-10-09T03:15:20;101723.63;;;13.51;55.23
79415;BME280;68864;44.972;19.612;2023-10-09T03:17:47;101735.75;;;13.55;54.65
79415;BME280;68864;44.972;19.612;2023-10-09T03:20:14;101741.38;;;13.55;54.63
79415;BME280;68864;44.972;19.612;2023-10-09T03:22:43;101743.69;;;13.53;54.71
79415;BME280;68864;44.972;19.612;2023-10-09T03:25:11;101739.53;;;13.47;55.15
79415;BME280;68864;44.972;19.612;2023-10-09T03:27:39;101736.38;;;13.36;55.72
79415;BME280;68864;44.972;19.612;2023-10-09T03:30:12;101735.00;;;13.30;55.64
79415;BME280;68864;44.972;19.612;2023-10-09T03:32:44;101728.59;;;13.30;55.44
79415;BME280;68864;44.972;19.612;2023-10-09T03:35:16;101727.66;;;13.26;55.10
79415;BME280;68864;44.972;19.612;2023-10-09T03:37:52;101730.00;;;13.24;55.18
79415;BME280;68864;44.972;19.612;2023-10-09T03:40:22;101717.53;;;13.21;55.27
79415;BME280;68864;44.972;19.612;2023-10-09T03:42:50;101721.72;;;13.27;55.24
79415;BME280;68864;44.972;19.612;2023-10-09T03:45:17;101715.44;;;13.18;55.19
79415;BME280;68864;44.972;19.612;2023-10-09T03:47:53;101708.78;;;13.23;55.21
79415;BME280;68864;44.972;19.612;2023-10-09T03:50:34;101699.19;;;13.24;55.24
79415;BME280;68864;44.972;19.612;2023-10-09T03:53:03;101694.41;;;13.24;54.71
79415;BME280;68864;44.972;19.612;2023-10-09T03:55:34;101696.78;;;13.22;55.41
79415;BME280;68864;44.972;19.612;2023-10-09T03:58:03;101699.44;;;13.19;55.07
79415;BME280;68864;44.972;19.612;2023-10-09T04:00:32;101699.19;;;13.24;55.31
79415;BME280;68864;44.972;19.612;2023-10-09T04:03:07;101692.91;;;13.27;55.30
79415;BME280;68864;44.972;19.612;2023-10-09T04:05:37;101708.63;;;13.31;55.33
79415;BME280;68864;44.972;19.612;2023-10-09T04:08:06;101703.78;;;13.16;55.42
79415;BME280;68864;44.972;19.612;2023-10-09T04:10:42;101726.03;;;13.25;55.55
79415;BME280;68864;44.972;19.612;2023-10-09T04:13:17;101723.38;;;13.16;55.77
79415;BME280;68864;44.972;19.612;2023-10-09T04:15:49;101722.91;;;13.14;56.09
79415;BME280;68864;44.972;19.612;2023-10-09T04:18:20;101716.25;;;13.06;55.68
79415;BME280;68864;44.972;19.612;2023-10-09T04:20:54;101710.31;;;13.08;55.57
79415;BME280;68864;44.972;19.612;2023-10-09T04:23:39;101696.22;;;12.92;55.60
79415;BME280;68864;44.972;19.612;2023-10-09T04:26:19;101703.91;;;12.95;55.63
79415;BME280;68864;44.972;19.612;2023-10-09T04:28:46;101699.59;;;12.86;55.11
79415;BME280;68864;44.972;19.612;2023-10-09T04:31:16;101700.66;;;12.93;55.68
79415;BME280;68864;44.972;19.612;2023-10-09T04:33:46;101697.03;;;12.93;55.67
79415;BME280;68864;44.972;19.612;2023-10-09T04:36:19;101702.53;;;12.89;56.07
79415;BME280;68864;44.972;19.612;2023-10-09T04:38:52;101697.88;;;12.81;56.00
79415;BME280;68864;44.972;19.612;2023-10-09T04:41:41;101699.59;;;12.86;55.86
79415;BME280;68864;44.972;19.612;2023-10-09T04:44:18;101703.69;;;12.88;55.69
79415;BME280;68864;44.972;19.612;2023-10-09T04:46:44;101708.00;;;12.86;56.01
79415;BME280;68864;44.972;19.612;2023-10-09T04:49:33;101703.00;;;12.79;56.55
79415;BME280;68864;44.972;19.612;2023-10-09T04:52:11;101704.72;;;12.84;56.44
79415;BME280;68864;44.972;19.612;2023-10-09T04:55:05;101696.72;;;12.82;56.10
79415;BME280;68864;44.972;19.612;2023-10-09T04:57:42;101702.31;;;12.82;56.87
79415;BME280;68864;44.972;19.612;2023-10-09T05:00:14;101694.47;;;12.63;56.81
79415;BME280;68864;44.972;19.612;2023-10-09T05:03:08;101706.50;;;12.76;56.66
79415;BME280;68864;44.972;19.612;2023-10-09T05:05:39;101702.41;;;12.86;56.84
79415;BME280;68864;44.972;19.612;2023-10-09T05:08:24;101697.63;;;12.86;56.63
79415;BME280;68864;44.972;19.612;2023-10-09T05:10:55;101684.22;;;12.80;56.73
79415;BME280;68864;44.972;19.612;2023-10-09T05:13:32;101678.03;;;12.86;56.43
79415;BME280;68864;44.972;19.612;2023-10-09T05:16:09;101693.97;;;12.98;56.82
79415;BME280;68864;44.972;19.612;2023-10-09T05:18:41;101670.47;;;12.87;56.25
79415;BME280;68864;44.972;19.612;2023-10-09T05:21:08;101693.50;;;13.08;55.90
79415;BME280;68864;44.972;19.612;2023-10-09T05:23:49;101702.16;;;13.15;56.40
79415;BME280;68864;44.972;19.612;2023-10-09T05:26:36;101690.44;;;13.25;56.46
79415;BME280;68864;44.972;19.612;2023-10-09T05:29:17;101692.31;;;13.33;55.85
79415;BME280;68864;44.972;19.612;2023-10-09T05:31:45;101691.91;;;13.47;55.75
79415;BME280;68864;44.972;19.612;2023-10-09T05:34:21;101682.44;;;13.51;55.45
79415;BME280;68864;44.972;19.612;2023-10-09T05:36:50;101692.31;;;13.61;55.35
79415;BME280;68864;44.972;19.612;2023-10-09T05:39:15;101694.94;;;13.70;54.90
79415;BME280;68864;44.972;19.612;2023-10-09T05:41:55;101699.03;;;13.72;55.34
79415;BME280;68864;44.972;19.612;2023-10-09T05:44:25;101694.50;;;13.68;55.50
79415;BME280;68864;44.972;19.612;2023-10-09T05:47:09;101686.53;;;13.70;55.14
79415;BME280;68864;44.972;19.612;2023-10-09T05:49:54;101686.38;;;13.78;54.92
79415;BME280;68864;44.972;19.612;2023-10-09T05:52:29;101690.91;;;13.83;54.51
79415;BME280;68864;44.972;19.612;2023-10-09T05:54:58;101693.91;;;13.90;54.20
79415;BME280;68864;44.972;19.612;2023-10-09T05:57:42;101698.56;;;14.14;53.54
79415;BME280;68864;44.972;19.612;2023-10-09T06:00:26;101696.78;;;14.21;53.32
79415;BME280;68864;44.972;19.612;2023-10-09T06:03:11;101696.31;;;14.19;53.45
79415;BME280;68864;44.972;19.612;2023-10-09T06:05:50;101700.13;;;14.58;52.37
79415;BME280;68864;44.972;19.612;2023-10-09T06:08:29;101704.44;;;14.87;53.21
79415;BME280;68864;44.972;19.612;2023-10-09T06:11:11;101702.13;;;15.82;50.80
79415;BME280;68864;44.972;19.612;2023-10-09T06:13:52;101680.84;;;16.76;48.46
79415;BME280;68864;44.972;19.612;2023-10-09T06:16:29;101668.94;;;19.22;42.24
79415;BME280;68864;44.972;19.612;2023-10-09T06:19:07;101682.66;;;20.49;39.27
79415;BME280;68864;44.972;19.612;2023-10-09T07:32:22;101632.41;;;28.56;24.22
79415;BME280;68864;44.972;19.612;2023-10-09T07:34:49;101615.28;;;29.65;22.57
79415;BME280;68864;44.972;19.612;2023-10-09T07:37:26;101605.94;;;29.08;22.94
79415;BME280;68864;44.972;19.612;2023-10-09T07:39:56;101598.84;;;28.78;23.03
79415;BME280;68864;44.972;19.612;2023-10-09T07:42:24;101593.13;;;30.14;21.39
79415;BME280;68864;44.972;19.612;2023-10-09T07:45:09;101598.63;;;33.19;18.29
79415;BME280;68864;44.972;19.612;2023-10-09T07:47:59;101602.16;;;35.18;15.71
79415;BME280;68864;44.972;19.612;2023-10-09T07:50:35;101603.75;;;36.45;14.79
79415;BME280;68864;44.972;19.612;2023-10-09T07:53:06;101605.50;;;36.31;15.99
79415;BME280;68864;44.972;19.612;2023-10-09T07:55:43;101589.16;;;36.28;15.94
79415;BME280;68864;44.972;19.612;2023-10-09T07:58:20;101585.44;;;36.76;15.30
79415;BME280;68864;44.972;19.612;2023-10-09T08:00:51;101563.44;;;39.52;12.95
79415;BME280;68864;44.972;19.612;2023-10-09T08:03:33;101586.38;;;39.96;12.76
79415;BME280;68864;44.972;19.612;2023-10-09T08:06:01;101592.81;;;40.86;12.15
79415;BME280;68864;44.972;19.612;2023-10-09T08:08:53;101586.94;;;41.24;11.49
79415;BME280;68864;44.972;19.612;2023-10-09T08:11:34;101588.94;;;43.11;10.81
79415;BME280;68864;44.972;19.612;2023-10-09T08:14:21;101579.59;;;43.68;10.05
79415;BME280;68864;44.972;19.612;2023-10-09T08:17:07;101564.31;;;43.69;10.18
79415;BME280;68864;44.972;19.612;2023-10-09T08:19:45;101564.84;;;44.38;8.58
79415;BME280;68864;44.972;19.612;2023-10-09T08:22:21;101555.38;;;45.11;8.90
79415;BME280;68864;44.972;19.612;2023-10-09T08:25:09;101546.22;;;45.53;8.39
79415;BME280;68864;44.972;19.612;2023-10-09T08:27:52;101539.31;;;46.11;7.86
79415;BME280;68864;44.972;19.612;2023-10-09T08:30:23;101538.19;;;45.83;8.42
79415;BME280;68864;44.972;19.612;2023-10-09T08:33:06;101524.78;;;46.20;7.89
79415;BME280;68864;44.972;19.612;2023-10-09T08:35:48;101523.41;;;45.07;8.20
79415;BME280;68864;44.972;19.612;2023-10-09T08:38:16;101520.47;;;45.76;8.36
79415;BME280;68864;44.972;19.612;2023-10-09T08:40:48;101506.53;;;46.62;8.03
79415;BME280;68864;44.972;19.612;2023-10-09T08:43:17;101498.88;;;45.73;7.79
79415;BME280;68864;44.972;19.612;2023-10-09T08:45:46;101493.56;;;46.50;7.57
79415;BME280;68864;44.972;19.612;2023-10-09T08:48:14;101485.88;;;45.99;7.78
79415;BME280;68864;44.972;19.612;2023-10-09T08:50:42;101503.50;;;46.14;7.51
79415;BME280;68864;44.972;19.612;2023-10-09T08:53:12;101500.44;;;45.36;7.64
79415;BME280;68864;44.972;19.612;2023-10-09T08:55:40;101497.13;;;45.85;7.28
79415;BME280;68864;44.972;19.612;2023-10-09T08:58:08;101489.06;;;45.86;7.61
79415;BME280;68864;44.972;19.612;2023-10-09T09:00:44;101482.78;;;45.74;7.65
79415;BME280;68864;44.972;19.612;2023-10-09T09:03:12;101470.81;;;45.57;7.69
79415;BME280;68864;44.972;19.612;2023-10-09T09:05:41;101464.31;;;43.82;8.47
79415;BME280;68864;44.972;19.612;2023-10-09T09:08:22;101445.31;;;40.26;10.91
79415;BME280;68864;44.972;19.612;2023-10-09T09:10:57;101441.66;;;37.83;12.54
79415;BME280;68864;44.972;19.612;2023-10-09T09:13:38;101432.19;;;35.52;14.57
79415;BME280;68864;44.972;19.612;2023-10-09T09:16:13;101431.41;;;33.97;16.08
79415;BME280;68864;44.972;19.612;2023-10-09T09:18:49;101425.44;;;32.71;17.98
79415;BME280;68864;44.972;19.612;2023-10-09T09:21:21;101435.03;;;32.24;18.20
79415;BME280;68864;44.972;19.612;2023-10-09T09:24:00;101421.31;;;30.88;19.20
79415;BME280;68864;44.972;19.612;2023-10-09T09:26:36;101430.16;;;30.29;19.64
79415;BME280;68864;44.972;19.612;2023-10-09T09:29:05;101438.31;;;29.94;20.25
79415;BME280;68864;44.972;19.612;2023-10-09T09:31:32;101426.38;;;29.56;21.24
79415;BME280;68864;44.972;19.612;2023-10-09T09:34:04;101426.47;;;29.34;22.20
79415;BME280;68864;44.972;19.612;2023-10-09T09:36:49;101406.19;;;28.45;23.58
79415;BME280;68864;44.972;19.612;2023-10-09T09:39:21;101402.09;;;28.55;23.00
79415;BME280;68864;44.972;19.612;2023-10-09T09:41:54;101399.91;;;28.16;23.21
79415;BME280;68864;44.972;19.612;2023-10-09T09:44:22;101398.50;;;27.73;24.13
79415;BME280;68864;44.972;19.612;2023-10-09T09:46:52;101396.72;;;27.41;24.09
79415;BME280;68864;44.972;19.612;2023-10-09T09:49:23;101389.88;;;27.13;24.27
79415;BME280;68864;44.972;19.612;2023-10-09T09:51:50;101392.06;;;27.09;24.64
79415;BME280;68864;44.972;19.612;2023-10-09T09:54:16;101377.53;;;26.49;25.26
79415;BME280;68864;44.972;19.612;2023-10-09T09:56:49;101370.63;;;26.88;25.27
79415;BME280;68864;44.972;19.612;2023-10-09T09:59:18;101357.00;;;26.93;24.61
79415;BME280;68864;44.972;19.612;2023-10-09T10:01:54;101356.66;;;26.65;25.11
79415;BME280;68864;44.972;19.612;2023-10-09T10:04:26;101337.84;;;26.39;25.70
79415;BME280;68864;44.972;19.612;2023-10-09T10:06:55;101357.88;;;26.52;25.42
79415;BME280;68864;44.972;19.612;2023-10-09T10:09:35;101361.50;;;26.10;26.04
79415;BME280;68864;44.972;19.612;2023-10-09T10:12:06;101343.75;;;26.03;26.14
79415;BME280;68864;44.972;19.612;2023-10-09T10:14:53;101334.94;;;25.97;26.54
79415;BME280;68864;44.972;19.612;2023-10-09T10:17:22;101324.38;;;26.10;25.90
79415;BME280;68864;44.972;19.612;2023-10-09T10:19:59;101330.09;;;26.10;26.87
79415;BME280;68864;44.972;19.612;2023-10-09T10:22:30;101325.41;;;25.59;26.98
79415;BME280;68864;44.972;19.612;2023-10-09T10:24:58;101326.31;;;25.23;27.63
79415;BME280;68864;44.972;19.612;2023-10-09T10:27:31;101314.84;;;25.72;27.11
79415;BME280;68864;44.972;19.612;2023-10-09T10:30:29;101308.16;;;26.20;27.04
79415;BME280;68864;44.972;19.612;2023-10-09T10:33:02;101310.84;;;26.40;26.71
79415;BME280;68864;44.972;19.612;2023-10-09T10:35:39;101283.91;;;26.92;26.08
79415;BME280;68864;44.972;19.612;2023-10-09T10:38:30;101277.00;;;26.76;26.40
79415;BME280;68864;44.972;19.612;2023-10-09T10:41:12;101272.34;;;26.57;26.91
79415;BME280;68864;44.972;19.612;2023-10-09T10:43:40;101269.56;;;26.41;27.25
79415;BME280;68864;44.972;19.612;2023-10-09T10:46:26;101261.97;;;26.22;27.58
79415;BME280;68864;44.972;19.612;2023-10-09T10:49:04;101252.94;;;26.10;28.23
79415;BME280;68864;44.972;19.612;2023-10-09T10:51:41;101237.16;;;26.19;27.79
79415;BME280;68864;44.972;19.612;2023-10-09T10:54:20;101239.41;;;25.98;28.40
79415;BME280;68864;44.972;19.612;2023-10-09T10:57:18;101228.53;;;25.93;28.54
79415;BME280;68864;44.972;19.612;2023-10-09T11:00:01;101236.78;;;25.62;28.60
79415;BME280;68864;44.972;19.612;2023-10-09T11:03:00;101226.75;;;25.58;29.09
79415;BME280;68864;44.972;19.612;2023-10-09T11:05:40;101213.88;;;25.66;29.19
79415;BME280;68864;44.972;19.612;2023-10-09T11:08:09;101220.78;;;25.36;29.02
79415;BME280;68864;44.972;19.612;2023-10-09T11:10:36;101200.69;;;25.11;29.58
79415;BME280;68864;44.972;19.612;2023-10-09T11:13:20;101201.88;;;24.97;29.79
79415;BME280;68864;44.972;19.612;2023-10-09T11:16:04;101192.31;;;24.87;29.91
79415;BME280;68864;44.972;19.612;2023-10-09T11:18:54;101199.66;;;24.72;29.97
79415;BME280;68864;44.972;19.612;2023-10-09T11:21:23;101184.75;;;24.65;30.01
79415;BME280;68864;44.972;19.612;2023-10-09T11:23:58;101179.13;;;24.61;30.27
79415;BME280;68864;44.972;19.612;2023-10-09T11:26:46;101177.72;;;24.53;30.29
79415;BME280;68864;44.972;19.612;2023-10-09T11:29:19;101163.28;;;24.44;30.66
79415;BME280;68864;44.972;19.612;2023-10-09T11:32:00;101152.78;;;24.41;30.67
79415;BME280;68864;44.972;19.612;2023-10-09T11:34:26;101148.25;;;24.43;30.91
79415;BME280;68864;44.972;19.612;2023-10-09T11:37:00;101136.53;;;24.05;31.46
79415;BME280;68864;44.972;19.612;2023-10-09T11:39:28;101144.53;;;23.74;31.88
79415;BME280;68864;44.972;19.612;2023-10-09T11:42:01;101136.59;;;23.66;32.06
79415;BME280;68864;44.972;19.612;2023-10-09T11:44:39;101121.50;;;23.49;32.32
79415;BME280;68864;44.972;19.612;2023-10-09T11:47:08;101123.34;;;23.59;32.53
79415;BME280;68864;44.972;19.612;2023-10-09T11:49:50;101110.38;;;23.74;32.16
79415;BME280;68864;44.972;19.612;2023-10-09T11:52:28;101118.31;;;23.83;31.82
79415;BME280;68864;44.972;19.612;2023-10-09T11:55:05;101098.56;;;23.76;32.27
79415;BME280;68864;44.972;19.612;2023-10-09T11:57:33;101092.41;;;23.77;32.75
79415;BME280;68864;44.972;19.612;2023-10-09T12:00:02;101097.75;;;23.75;32.82
79415;BME280;68864;44.972;19.612;2023-10-09T12:02:38;101084.28;;;23.60;32.97
79415;BME280;68864;44.972;19.612;2023-10-09T12:05:09;101063.19;;;23.57;33.19
79415;BME280;68864;44.972;19.612;2023-10-09T12:07:43;101073.25;;;23.62;33.05
79415;BME280;68864;44.972;19.612;2023-10-09T12:10:10;101061.28;;;23.70;33.27
79415;BME280;68864;44.972;19.612;2023-10-09T12:12:39;101053.75;;;23.60;33.59
79415;BME280;68864;44.972;19.612;2023-10-09T12:15:11;101044.44;;;23.60;33.47
79415;BME280;68864;44.972;19.612;2023-10-09T12:17:44;101044.47;;;23.40;33.71
79415;BME280;68864;44.972;19.612;2023-10-09T12:20:13;101035.72;;;23.31;34.14
79415;BME280;68864;44.972;19.612;2023-10-09T12:22:56;101031.84;;;23.21;34.43
79415;BME280;68864;44.972;19.612;2023-10-09T12:25:24;101026.47;;;23.07;34.60
79415;BME280;68864;44.972;19.612;2023-10-09T12:27:51;101015.69;;;22.98;34.60
79415;BME280;68864;44.972;19.612;2023-10-09T12:30:21;101023.06;;;22.96;35.25
79415;BME280;68864;44.972;19.612;2023-10-09T12:32:54;101025.38;;;23.01;35.17
79415;BME280;68864;44.972;19.612;2023-10-09T12:35:23;101021.72;;;23.01;35.78
79415;BME280;68864;44.972;19.612;2023-10-09T12:37:51;101010.16;;;23.11;35.24
79415;BME280;68864;44.972;19.612;2023-10-09T12:40:20;100986.75;;;23.04;35.04
79415;BME280;68864;44.972;19.612;2023-10-09T12:42:51;100977.16;;;23.14;35.11
79415;BME280;68864;44.972;19.612;2023-10-09T12:45:21;100964.88;;;23.01;35.60
79415;BME280;68864;44.972;19.612;2023-10-09T12:47:53;100976.66;;;23.19;35.30
79415;BME280;68864;44.972;19.612;2023-10-09T12:50:24;100966.38;;;23.25;35.19
79415;BME280;68864;44.972;19.612;2023-10-09T12:52:55;100964.59;;;23.31;35.38
79415;BME280;68864;44.972;19.612;2023-10-09T12:55:22;100971.94;;;23.48;35.75
79415;BME280;68864;44.972;19.612;2023-10-09T12:57:59;100965.63;;;23.57;35.91
79415;BME280;68864;44.972;19.612;2023-10-09T13:00:32;100963.75;;;23.50;34.96
79415;BME280;68864;44.972;19.612;2023-10-09T13:03:00;100941.41;;;23.32;35.27
79415;BME280;68864;44.972;19.612;2023-10-09T13:05:27;100954.41;;;23.33;35.71
79415;BME280;68864;44.972;19.612;2023-10-09T13:07:54;100953.19;;;23.15;36.29
79415;BME280;68864;44.972;19.612;2023-10-09T13:10:23;100932.50;;;22.94;36.51
79415;BME280;68864;44.972;19.612;2023-10-09T13:12:51;100943.88;;;22.94;36.46
79415;BME280;68864;44.972;19.612;2023-10-09T13:15:21;100929.81;;;22.87;36.89
79415;BME280;68864;44.972;19.612;2023-10-09T13:17:48;100940.91;;;22.82;37.33
79415;BME280;68864;44.972;19.612;2023-10-09T13:20:20;100930.19;;;22.89;36.56
79415;BME280;68864;44.972;19.612;2023-10-09T13:22:47;100920.50;;;22.87;36.81
79415;BME280;68864;44.972;19.612;2023-10-09T13:25:14;100926.09;;;22.90;37.50
79415;BME280;68864;44.972;19.612;2023-10-09T14:37:18;100856.56;;;22.39;40.76
79415;BME280;68864;44.972;19.612;2023-10-09T14:39:45;100864.13;;;22.46;40.16
79415;BME280;68864;44.972;19.612;2023-10-09T14:42:13;100870.91;;;22.52;40.34
79415;BME280;68864;44.972;19.612;2023-10-09T14:44:41;100879.41;;;22.52;40.24
79415;BME280;68864;44.972;19.612;2023-10-09T14:47:10;100862.81;;;22.50;39.91
79415;BME280;68864;44.972;19.612;2023-10-09T14:49:40;100869.13;;;22.58;40.63
79415;BME280;68864;44.972;19.612;2023-10-09T14:52:09;100851.00;;;22.52;40.42
79415;BME280;68864;44.972;19.612;2023-10-09T14:54:38;100873.13;;;22.60;40.75
79415;BME280;68864;44.972;19.612;2023-10-09T14:57:05;100869.13;;;22.58;40.77
79415;BME280;68864;44.972;19.612;2023-10-09T14:59:31;100870.31;;;22.41;41.54
79415;BME280;68864;44.972;19.612;2023-10-09T15:01:58;100858.31;;;22.33;41.79
79415;BME280;68864;44.972;19.612;2023-10-09T15:04:25;100855.09;;;22.31;41.53
79415;BME280;68864;44.972;19.612;2023-10-09T15:06:52;100867.63;;;22.34;41.76
79415;BME280;68864;44.972;19.612;2023-10-09T15:09:18;100859.88;;;22.14;41.75
79415;BME280;68864;44.972;19.612;2023-10-09T15:11:50;100861.44;;;22.19;42.70
79415;BME280;68864;44.972;19.612;2023-10-09T15:14:17;100844.69;;;22.05;44.52
79415;BME280;68864;44.972;19.612;2023-10-09T15:16:45;100862.44;;;22.09;43.74
79415;BME280;68864;44.972;19.612;2023-10-09T15:19:12;100870.66;;;22.03;43.91
79415;BME280;68864;44.972;19.612;2023-10-09T15:21:40;100872.78;;;21.99;44.53
79415;BME280;68864;44.972;19.612;2023-10-09T15:24:09;100876.06;;;21.94;45.06
79415;BME280;68864;44.972;19.612;2023-10-09T15:26:40;100892.00;;;21.88;45.64
79415;BME280;68864;44.972;19.612;2023-10-09T15:29:08;100895.97;;;21.71;45.64
79415;BME280;68864;44.972;19.612;2023-10-09T15:31:35;100895.09;;;21.74;46.15
79415;BME280;68864;44.972;19.612;2023-10-09T15:34:02;100872.59;;;21.63;47.32